Terminal Aerodrome Forecast
Issued by NWS Cleveland, OH

Home | Current Version | Previous Version | Text Only | Print | Product List | Glossary On
Versions: 1 2 3 4 5 6 7 8 9 10 11 12 13 14 15 16 17 18
515
FTUS41 KCLE 281728
TAFYNG
TAF
KYNG 281728Z 2818/2918 18005KT P6SM VCSH SCT070 OVC100
     FM281900 VRB03KT P6SM -SHRA BKN060
     FM290000 VRB03KT P6SM VCSH BKN050
     FM290600 00000KT 2SM BR BKN100
     FM291400 35005KT P6SM BKN100=

USA.gov is the U.S. government's official web portal to all federal, state and local government web resources and services.